Time;durP1;ratioP1;P1;durP2;ratioP2;P2;SDS_P1;SDS_P2;PMS_P1;PMS_P2;Temp;Humidity;BMP_temperature;BMP_pressure;BME280_temperature;BME280_humidity;BME280_pressure;Samples;Min_cycle;Max_cycle;Signal;HPM_P1;HPM_P2
2022/07/22 00:00:14;;;;;;;7.85;5.78;;;17.80;99.90;;;;;;5105044;28;20487;-81
2022/07/22 00:02:40;;;;;;;6.82;6.13;;;17.80;99.90;;;;;;5092496;28;20028;-81
2022/07/22 00:05:07;;;;;;;6.90;5.88;;;17.80;99.90;;;;;;5095860;28;20582;-81
2022/07/22 00:07:33;;;;;;;8.38;6.68;;;17.70;99.90;;;;;;5099719;28;20036;-81
2022/07/22 00:09:59;;;;;;;7.57;6.78;;;17.80;99.90;;;;;;5071366;28;20549;-80
2022/07/22 00:12:25;;;;;;;9.70;7.25;;;17.80;99.90;;;;;;5071018;28;20078;-80
2022/07/22 00:14:50;;;;;;;7.13;6.43;;;17.70;99.90;;;;;;5085348;28;20031;-81
2022/07/22 00:17:16;;;;;;;6.88;5.80;;;17.70;99.90;;;;;;5082617;28;20124;-82
2022/07/22 00:19:42;;;;;;;7.57;6.38;;;17.70;99.90;;;;;;5066561;28;20033;-80
2022/07/22 00:22:08;;;;;;;7.47;6.55;;;17.70;99.90;;;;;;5092180;28;20031;-81
2022/07/22 00:24:34;;;;;;;7.40;6.60;;;17.70;99.90;;;;;;5095958;28;20055;-82
2022/07/22 00:27:00;;;;;;;8.43;6.55;;;17.70;99.90;;;;;;5065930;28;20483;-81
2022/07/22 00:29:25;;;;;;;8.32;6.63;;;17.60;99.90;;;;;;5052285;28;20040;-81
2022/07/22 00:31:51;;;;;;;9.52;6.30;;;17.60;99.90;;;;;;5072297;28;20079;-82
2022/07/22 00:34:17;;;;;;;6.70;6.00;;;17.60;99.90;;;;;;5072610;28;20041;-80
2022/07/22 00:37:02;;;;;;;8.13;6.07;;;17.60;99.90;;;;;;5099198;28;20390;-82
2022/07/22 00:39:28;;;;;;;7.73;6.30;;;17.60;99.90;;;;;;5098901;28;20036;-80
2022/07/22 00:41:53;;;;;;;8.52;5.95;;;17.60;99.90;;;;;;5048903;28;20484;-80
2022/07/22 00:44:19;;;;;;;8.23;5.95;;;17.60;99.90;;;;;;5069767;28;20661;-81
2022/07/22 00:46:45;;;;;;;7.07;6.32;;;17.60;99.90;;;;;;5076500;28;20035;-80
2022/07/22 00:49:11;;;;;;;10.73;6.45;;;17.60;99.90;;;;;;5065525;28;20093;-81
2022/07/22 00:51:40;;;;;;;8.88;6.93;;;17.50;99.90;;;;;;5075182;28;20047;-81
2022/07/22 00:54:06;;;;;;;7.88;6.97;;;17.50;99.90;;;;;;5084692;28;20101;-80
2022/07/22 00:56:32;;;;;;;8.75;6.43;;;17.40;99.90;;;;;;5099127;28;20038;-80
2022/07/22 00:59:02;;;;;;;8.30;6.32;;;17.40;99.90;;;;;;5070564;28;20047;-81
2022/07/22 01:01:28;;;;;;;8.02;7.07;;;17.40;99.90;;;;;;5053205;28;20035;-80
2022/07/22 01:03:54;;;;;;;8.50;6.88;;;17.40;99.90;;;;;;5067987;28;20483;-80
2022/07/22 01:06:20;;;;;;;7.47;6.68;;;17.40;99.90;;;;;;5063221;28;20027;-81
2022/07/22 01:08:45;;;;;;;8.88;7.20;;;17.30;99.90;;;;;;5083023;28;20499;-81
2022/07/22 01:11:14;;;;;;;8.65;6.97;;;17.30;99.90;;;;;;5059660;28;20028;-80
2022/07/22 01:13:41;;;;;;;9.27;6.75;;;17.30;99.90;;;;;;5090943;28;20122;-82
2022/07/22 01:16:08;;;;;;;8.77;6.95;;;17.20;99.90;;;;;;5085994;28;20040;-81
2022/07/22 01:18:36;;;;;;;10.73;7.40;;;17.20;99.90;;;;;;5059095;28;20039;-81
2022/07/22 01:21:02;;;;;;;9.70;7.38;;;17.20;99.90;;;;;;5103735;27;20419;-80
2022/07/22 01:23:28;;;;;;;10.63;7.80;;;17.20;99.90;;;;;;5058716;28;20040;-81
2022/07/22 01:25:54;;;;;;;11.13;7.97;;;17.10;99.90;;;;;;5098092;28;20039;-82
2022/07/22 01:28:21;;;;;;;9.73;7.68;;;17.10;99.90;;;;;;5075749;28;20033;-81
2022/07/22 01:30:46;;;;;;;10.35;8.15;;;17.10;99.90;;;;;;5085506;28;20039;-81
2022/07/22 01:33:12;;;;;;;8.48;7.57;;;17.00;99.90;;;;;;5079637;28;20033;-81
2022/07/22 01:35:38;;;;;;;8.77;7.85;;;17.00;99.90;;;;;;5064791;28;20028;-81
2022/07/22 01:38:04;;;;;;;9.65;8.25;;;17.00;99.90;;;;;;5094083;28;20497;-80
2022/07/22 01:40:30;;;;;;;8.75;7.55;;;16.90;99.90;;;;;;5074578;28;20054;-81
2022/07/22 01:42:56;;;;;;;8.85;7.47;;;16.90;99.90;;;;;;5063456;28;20039;-80
2022/07/22 01:45:22;;;;;;;11.23;7.97;;;16.80;99.90;;;;;;5075217;28;20024;-81
2022/07/22 01:47:48;;;;;;;10.55;7.97;;;16.70;99.90;;;;;;5098217;28;20032;-81
2022/07/22 01:50:13;;;;;;;8.70;7.57;;;16.70;99.90;;;;;;5081382;28;20129;-81
2022/07/22 01:52:40;;;;;;;9.75;7.60;;;16.70;99.90;;;;;;5069177;28;20032;-80
2022/07/22 01:55:07;;;;;;;8.23;7.38;;;16.70;99.90;;;;;;5049950;28;20028;-81
2022/07/22 01:57:35;;;;;;;9.27;7.22;;;16.70;99.90;;;;;;5083178;28;20066;-80
2022/07/22 02:00:08;;;;;;;10.82;7.70;;;16.70;99.90;;;;;;5098529;28;20498;-80
2022/07/22 02:02:42;;;;;;;8.85;6.63;;;16.60;99.90;;;;;;5092673;28;20406;-81
2022/07/22 02:05:10;;;;;;;8.77;7.57;;;16.60;99.90;;;;;;5075935;28;20036;-81
2022/07/22 02:07:36;;;;;;;10.25;8.00;;;16.50;99.90;;;;;;5088038;28;20031;-81
2022/07/22 02:10:04;;;;;;;8.70;7.50;;;16.50;99.90;;;;;;5080509;28;20032;-80
2022/07/22 02:12:32;;;;;;;8.98;6.90;;;16.50;99.90;;;;;;5084742;28;20035;-81
2022/07/22 02:14:58;;;;;;;9.65;7.20;;;16.50;99.90;;;;;;5083497;28;20029;-81
2022/07/22 02:17:24;;;;;;;9.63;7.45;;;16.40;99.90;;;;;;5056614;28;20402;-81
2022/07/22 02:19:50;;;;;;;11.48;8.20;;;16.40;99.90;;;;;;5074573;28;20024;-81
2022/07/22 02:22:17;;;;;;;10.02;7.40;;;16.40;99.90;;;;;;5099906;28;20062;-81
2022/07/22 02:24:46;;;;;;;9.95;7.75;;;16.40;99.90;;;;;;5104694;28;20077;-81
2022/07/22 02:27:12;;;;;;;9.80;7.85;;;16.30;99.90;;;;;;5073446;28;20032;-81
2022/07/22 02:29:39;;;;;;;11.88;8.35;;;16.30;99.90;;;;;;5062525;28;20027;-82
2022/07/22 02:32:05;;;;;;;10.55;7.47;;;16.30;99.90;;;;;;5075319;28;20456;-81
2022/07/22 02:34:30;;;;;;;9.85;7.32;;;16.30;99.90;;;;;;5089436;28;20028;-81
2022/07/22 02:36:56;;;;;;;8.85;7.38;;;16.20;99.90;;;;;;5077526;28;20038;-81
2022/07/22 02:39:23;;;;;;;11.07;8.20;;;16.20;99.90;;;;;;5057695;28;20098;-81
2022/07/22 02:41:48;;;;;;;11.90;7.57;;;16.30;99.90;;;;;;5098446;28;20024;-81
2022/07/22 02:44:15;;;;;;;11.13;7.75;;;16.20;99.90;;;;;;5075874;28;20509;-81
2022/07/22 02:46:40;;;;;;;9.88;7.57;;;16.20;99.90;;;;;;5069777;28;20028;-80
2022/07/22 02:49:14;;;;;;;9.68;7.20;;;16.20;99.90;;;;;;5070298;28;20031;-81
2022/07/22 02:51:40;;;;;;;10.07;6.95;;;16.30;99.90;;;;;;5071279;28;20031;-81
2022/07/22 02:54:06;;;;;;;10.00;6.97;;;16.20;99.90;;;;;;5055704;28;20051;-81
2022/07/22 02:56:32;;;;;;;8.52;6.90;;;16.30;99.90;;;;;;5076655;28;20060;-80
2022/07/22 02:58:58;;;;;;;9.63;7.70;;;16.20;99.90;;;;;;5074461;28;20028;-80
2022/07/22 03:01:24;;;;;;;8.30;6.63;;;16.20;99.90;;;;;;5072502;28;20032;-80
2022/07/22 03:04:00;;;;;;;8.77;7.38;;;16.30;99.90;;;;;;5104803;28;20034;-81
2022/07/22 03:06:27;;;;;;;9.20;7.45;;;16.30;99.90;;;;;;5072183;28;20077;-81
2022/07/22 03:09:16;;;;;;;9.43;8.05;;;16.30;99.90;;;;;;5073340;28;20031;-80
2022/07/22 03:11:44;;;;;;;11.20;7.30;;;16.30;99.90;;;;;;5064291;28;20130;-81
2022/07/22 03:14:11;;;;;;;9.15;7.18;;;16.30;99.90;;;;;;5086558;28;20049;-80
2022/07/22 03:16:37;;;;;;;9.90;8.20;;;16.20;99.90;;;;;;5099953;28;20135;-81
2022/07/22 03:19:03;;;;;;;10.60;7.65;;;16.30;99.90;;;;;;5071831;28;20491;-81
2022/07/22 03:21:29;;;;;;;11.82;7.78;;;16.30;99.90;;;;;;5081629;28;20047;-80
2022/07/22 03:23:55;;;;;;;10.25;8.15;;;16.30;99.90;;;;;;5049498;28;20032;-80
2022/07/22 03:26:23;;;;;;;9.65;7.68;;;16.30;99.90;;;;;;5080123;28;20111;-80
2022/07/22 03:28:49;;;;;;;10.25;7.53;;;16.20;99.90;;;;;;5067050;28;20501;-80
2022/07/22 03:31:16;;;;;;;9.20;7.47;;;16.20;99.90;;;;;;5078093;28;20157;-80
2022/07/22 03:33:42;;;;;;;9.07;7.47;;;16.20;99.90;;;;;;5092088;28;20021;-80
2022/07/22 03:36:09;;;;;;;8.77;7.18;;;16.20;99.90;;;;;;5064482;28;20074;-80
2022/07/22 03:38:37;;;;;;;10.13;7.35;;;16.20;99.90;;;;;;5086158;28;20017;-80
2022/07/22 03:41:04;;;;;;;9.38;7.63;;;16.20;99.90;;;;;;5063594;28;20054;-80
2022/07/22 03:43:30;;;;;;;10.63;7.55;;;16.20;99.90;;;;;;5064418;28;20039;-82
2022/07/22 03:45:57;;;;;;;8.18;7.30;;;16.10;99.90;;;;;;5097489;28;20031;-81
2022/07/22 03:48:23;;;;;;;9.43;7.22;;;16.10;99.90;;;;;;5061884;28;20038;-81
2022/07/22 03:50:51;;;;;;;10.55;8.07;;;16.10;99.90;;;;;;5093281;28;20028;-79
2022/07/22 03:53:17;;;;;;;10.40;8.23;;;16.00;99.90;;;;;;5098556;28;20055;-80
2022/07/22 03:55:43;;;;;;;9.15;7.88;;;16.00;99.90;;;;;;5111734;28;20054;-80
2022/07/22 03:58:09;;;;;;;9.70;8.18;;;15.90;99.90;;;;;;5094303;28;20091;-82
2022/07/22 04:00:35;;;;;;;11.70;7.82;;;15.90;99.90;;;;;;5100222;28;20497;-82
2022/07/22 04:03:03;;;;;;;10.27;8.13;;;15.90;99.90;;;;;;5091531;28;20028;-82
2022/07/22 04:05:49;;;;;;;9.55;7.38;;;15.90;99.90;;;;;;5091496;28;20044;-82
2022/07/22 04:08:23;;;;;;;11.38;7.53;;;16.00;99.90;;;;;;5050337;28;20039;-81
2022/07/22 04:10:48;;;;;;;9.07;7.07;;;16.00;99.90;;;;;;5064779;28;20036;-80
2022/07/22 04:13:14;;;;;;;8.95;7.10;;;16.00;99.90;;;;;;5060307;28;20032;-83
2022/07/22 04:15:55;;;;;;;9.10;7.07;;;16.00;99.90;;;;;;5065496;28;20036;-82
2022/07/22 04:18:20;;;;;;;10.95;8.30;;;16.00;99.90;;;;;;5092584;28;20035;-82
2022/07/22 04:20:46;;;;;;;9.55;7.05;;;16.00;99.90;;;;;;5060104;28;20032;-82
2022/07/22 04:23:21;;;;;;;9.55;6.72;;;16.00;99.90;;;;;;5070265;28;20070;-82
2022/07/22 04:25:49;;;;;;;8.65;7.00;;;16.00;99.90;;;;;;5092903;28;20029;-83
2022/07/22 04:28:15;;;;;;;7.68;6.85;;;16.00;99.90;;;;;;5076409;28;20057;-81
2022/07/22 04:30:41;;;;;;;8.57;7.15;;;16.00;99.90;;;;;;5095776;28;20035;-83
2022/07/22 04:33:07;;;;;;;9.30;6.70;;;16.10;99.90;;;;;;5095617;28;20024;-82
2022/07/22 04:35:33;;;;;;;9.25;7.05;;;16.10;99.90;;;;;;5075669;28;20115;-82
2022/07/22 04:38:10;;;;;;;8.95;7.07;;;16.10;99.90;;;;;;5093639;28;20032;-82
2022/07/22 04:40:38;;;;;;;10.07;7.65;;;16.20;99.90;;;;;;5060007;28;20040;-83
2022/07/22 04:43:05;;;;;;;9.75;7.95;;;16.10;99.90;;;;;;5088362;28;20035;-81
2022/07/22 04:45:31;;;;;;;9.27;7.63;;;16.20;99.90;;;;;;5108628;28;20036;-83
2022/07/22 04:47:57;;;;;;;9.02;7.40;;;16.20;99.90;;;;;;5103155;28;20039;-83
2022/07/22 04:50:22;;;;;;;8.95;7.60;;;16.30;99.90;;;;;;5068764;28;20036;-82
2022/07/22 04:52:54;;;;;;;10.15;8.07;;;16.30;99.90;;;;;;5072948;28;20032;-83
2022/07/22 04:55:20;;;;;;;10.15;8.77;;;16.30;99.90;;;;;;5063290;28;20517;-83
2022/07/22 04:57:46;;;;;;;9.73;7.55;;;16.40;99.90;;;;;;5077036;28;20032;-83
2022/07/22 05:00:15;;;;;;;10.85;8.20;;;16.40;99.90;;;;;;5079623;28;20134;-80
2022/07/22 05:02:47;;;;;;;9.77;7.80;;;16.50;99.90;;;;;;5108543;28;20031;-82
2022/07/22 05:05:13;;;;;;;12.60;8.40;;;16.50;99.90;;;;;;5076750;28;20098;-81
2022/07/22 05:07:40;;;;;;;9.90;7.95;;;16.60;99.90;;;;;;5075211;28;20055;-81
2022/07/22 05:10:06;;;;;;;10.52;7.32;;;16.70;99.90;;;;;;5073410;28;20060;-82
2022/07/22 05:12:32;;;;;;;8.68;7.28;;;16.70;99.90;;;;;;5045521;28;20032;-82
2022/07/22 05:14:59;;;;;;;8.45;7.03;;;16.80;99.90;;;;;;5060763;28;20028;-82
2022/07/22 05:17:25;;;;;;;9.23;7.32;;;16.90;99.90;;;;;;5076458;28;20031;-80
2022/07/22 05:20:04;;;;;;;;;;;17.00;99.90;;;;;;5064873;28;20395;-80
2022/07/22 05:22:31;;;;;;;7.90;6.53;;;17.10;99.90;;;;;;5072766;28;19962;-82
2022/07/22 05:24:58;;;;;;;7.90;6.78;;;17.20;99.90;;;;;;5058682;28;20036;-82
2022/07/22 05:27:23;;;;;;;7.68;6.70;;;17.30;99.90;;;;;;5069784;28;20506;-82
2022/07/22 05:29:49;;;;;;;9.80;7.38;;;17.40;99.90;;;;;;5045861;28;20123;-82
2022/07/22 05:32:15;;;;;;;11.07;7.38;;;17.50;99.90;;;;;;5086122;28;20031;-82
2022/07/22 05:34:41;;;;;;;9.75;7.43;;;17.60;99.90;;;;;;5096476;28;20016;-83
2022/07/22 05:37:07;;;;;;;9.50;8.23;;;17.80;99.90;;;;;;5101365;28;20028;-81
2022/07/22 05:39:33;;;;;;;9.98;8.18;;;18.10;99.90;;;;;;5058431;28;20028;-82
2022/07/22 05:41:59;;;;;;;9.48;7.75;;;18.40;99.90;;;;;;5059273;28;20465;-82
2022/07/22 05:44:25;;;;;;;8.60;7.15;;;18.80;99.90;;;;;;5077247;28;20127;-82
2022/07/22 05:46:51;;;;;;;10.50;6.88;;;19.20;99.90;;;;;;5072874;28;20070;-82
2022/07/22 05:49:18;;;;;;;9.45;7.00;;;19.70;99.90;;;;;;5059738;28;20024;-82
2022/07/22 05:51:53;;;;;;;9.55;7.43;;;20.10;99.90;;;;;;5079430;28;20049;-82
2022/07/22 05:54:19;;;;;;;7.57;6.32;;;20.60;99.90;;;;;;5078025;28;20052;-81
2022/07/22 05:56:45;;;;;;;7.55;6.60;;;21.10;99.90;;;;;;5094347;28;20035;-83
2022/07/22 05:59:10;;;;;;;7.65;6.85;;;21.50;99.90;;;;;;5075370;28;20036;-83
2022/07/22 06:01:37;;;;;;;9.75;6.40;;;21.80;99.90;;;;;;5055562;28;20390;-81
2022/07/22 06:04:15;;;;;;;7.65;6.72;;;22.20;99.90;;;;;;5081472;28;20035;-83
2022/07/22 06:06:41;;;;;;;7.78;6.70;;;22.60;99.90;;;;;;5043650;28;20029;-83
2022/07/22 06:09:07;;;;;;;9.98;7.20;;;23.00;99.90;;;;;;5078145;28;20040;-84
2022/07/22 06:11:33;;;;;;;8.15;6.05;;;23.50;99.90;;;;;;5091979;28;20028;-83
2022/07/22 06:13:59;;;;;;;8.18;6.63;;;23.90;99.90;;;;;;5076854;28;20024;-82
2022/07/22 06:16:24;;;;;;;8.77;7.07;;;24.40;98.60;;;;;;5085911;28;20505;-83
2022/07/22 06:18:54;;;;;;;10.38;7.28;;;24.70;96.80;;;;;;5043208;28;20032;-84
2022/07/22 06:21:20;;;;;;;7.35;6.43;;;24.80;95.60;;;;;;5096639;28;20359;-83
2022/07/22 06:23:46;;;;;;;9.73;6.82;;;25.00;94.70;;;;;;5076619;28;20063;-82
2022/07/22 06:26:12;;;;;;;6.97;6.28;;;25.20;93.80;;;;;;5057471;28;20032;-83
2022/07/22 06:28:38;;;;;;;7.55;6.47;;;25.40;93.00;;;;;;5071849;28;20035;-82
2022/07/22 06:31:04;;;;;;;8.35;6.28;;;25.70;92.40;;;;;;5083564;28;20063;-83
2022/07/22 06:33:33;;;;;;;9.00;6.68;;;26.00;90.80;;;;;;5071765;28;20025;-81
2022/07/22 06:36:00;;;;;;;7.03;6.35;;;26.40;89.60;;;;;;5076194;28;20597;-81
2022/07/22 06:38:27;;;;;;;11.20;6.80;;;26.70;87.10;;;;;;5090679;28;20044;-81
2022/07/22 06:41:19;;;;;;;6.90;6.07;;;27.00;84.60;;;;;;5094805;28;20036;-81
2022/07/22 06:44:05;;;;;;;7.43;6.28;;;27.40;82.10;;;;;;5082583;28;20122;-80
2022/07/22 06:46:49;;;;;;;10.10;6.95;;;27.70;79.60;;;;;;5089030;28;20092;-81
2022/07/22 06:49:17;;;;;;;6.60;6.00;;;28.10;77.60;;;;;;5095010;28;20028;-81
2022/07/22 06:51:43;;;;;;;7.18;6.47;;;28.20;76.10;;;;;;5079116;28;20020;-80
2022/07/22 06:54:09;;;;;;;6.53;5.80;;;28.30;75.00;;;;;;5078629;28;20039;-81
2022/07/22 06:56:35;;;;;;;6.65;5.95;;;28.30;74.80;;;;;;5074861;28;20032;-82
2022/07/22 06:59:00;;;;;;;9.18;7.60;;;28.40;73.20;;;;;;5072128;28;20036;-82
2022/07/22 07:01:26;;;;;;;10.00;6.53;;;28.50;71.30;;;;;;5073978;28;20032;-81
2022/07/22 07:03:54;;;;;;;6.93;6.22;;;28.20;71.80;;;;;;5075538;28;20049;-82
2022/07/22 07:06:20;;;;;;;7.85;6.07;;;28.10;71.20;;;;;;5038257;28;20119;-81
2022/07/22 07:09:04;;;;;;;11.15;6.57;;;28.10;73.10;;;;;;5070787;28;20095;-81
2022/07/22 07:11:31;;;;;;;6.35;5.75;;;28.20;72.70;;;;;;5061724;28;20517;-80
2022/07/22 07:13:57;;;;;;;7.65;6.13;;;28.60;72.10;;;;;;5070920;28;20126;-83
2022/07/22 07:16:23;;;;;;;6.88;6.20;;;28.90;70.30;;;;;;5086026;28;20032;-82
2022/07/22 07:18:49;;;;;;;10.18;6.00;;;29.20;69.80;;;;;;5088524;28;20033;-82
2022/07/22 07:21:15;;;;;;;6.32;5.72;;;29.40;68.10;;;;;;5070059;28;20119;-81
2022/07/22 07:23:40;;;;;;;7.13;6.03;;;29.50;68.80;;;;;;5070669;28;20031;-80
2022/07/22 07:26:07;;;;;;;8.38;7.35;;;29.80;67.30;;;;;;5085341;28;20036;-80
2022/07/22 07:28:32;;;;;;;7.82;7.03;;;29.80;65.00;;;;;;5085527;28;20512;-81
2022/07/22 07:31:03;;;;;;;7.55;6.75;;;29.70;63.40;;;;;;5073688;28;20495;-81
2022/07/22 07:33:29;;;;;;;8.05;7.00;;;29.30;65.60;;;;;;5039458;28;20035;-83
2022/07/22 07:35:56;;;;;;;7.22;6.53;;;29.40;65.80;;;;;;5099303;28;20053;-82
2022/07/22 07:38:39;;;;;;;7.70;6.20;;;29.70;65.10;;;;;;5088339;28;20019;-83
2022/07/22 07:41:09;;;;;;;7.57;6.05;;;30.10;62.90;;;;;;5089778;28;20124;-83
2022/07/22 07:43:37;;;;;;;8.80;6.75;;;30.30;62.20;;;;;;5064055;28;20082;-82
2022/07/22 07:46:03;;;;;;;9.52;6.20;;;30.30;62.00;;;;;;5100933;28;20035;-82
2022/07/22 07:48:29;;;;;;;7.53;6.32;;;30.20;62.60;;;;;;5094609;28;20036;-81
2022/07/22 07:50:55;;;;;;;6.80;6.15;;;30.30;61.60;;;;;;5089237;28;20081;-82
2022/07/22 07:53:21;;;;;;;7.63;6.00;;;30.00;61.90;;;;;;5096155;28;20024;-81
2022/07/22 07:55:47;;;;;;;8.43;6.53;;;30.20;63.10;;;;;;5088499;28;20127;-81
2022/07/22 07:58:13;;;;;;;9.98;7.47;;;29.80;60.50;;;;;;5069905;28;20039;-80
2022/07/22 08:00:42;;;;;;;8.45;6.88;;;29.30;61.30;;;;;;5041435;28;20032;-82
2022/07/22 08:03:09;;;;;;;7.93;7.13;;;28.90;64.60;;;;;;5042454;28;20507;-81
2022/07/22 08:05:38;;;;;;;8.25;7.38;;;28.80;64.80;;;;;;5091983;28;20031;-80
2022/07/22 08:08:07;;;;;;;10.70;7.03;;;28.90;64.40;;;;;;5106021;28;20604;-79
2022/07/22 08:10:32;;;;;;;7.63;6.82;;;28.90;64.70;;;;;;5070011;28;20028;-79
2022/07/22 08:13:33;;;;;;;7.68;6.88;;;28.40;65.20;;;;;;5035956;28;20037;-80
2022/07/22 08:16:27;;;;;;;7.53;6.22;;;28.20;66.80;;;;;;5068911;28;20072;-80
2022/07/22 08:18:53;;;;;;;6.85;6.15;;;27.80;65.90;;;;;;5050165;28;20105;-79
2022/07/22 08:21:19;;;;;;;14.48;6.85;;;27.60;68.10;;;;;;5082385;28;20032;-78
2022/07/22 08:23:58;;;;;;;7.75;6.63;;;27.60;68.30;;;;;;5091490;28;20065;-79
2022/07/22 08:26:24;;;;;;;8.43;7.30;;;27.70;68.80;;;;;;5075884;28;20121;-79
2022/07/22 08:28:50;;;;;;;7.53;6.72;;;27.80;69.50;;;;;;5067601;28;20028;-79
2022/07/22 08:31:16;;;;;;;8.10;7.03;;;28.00;70.30;;;;;;5065044;28;20046;-80
2022/07/22 08:33:42;;;;;;;8.02;6.40;;;28.00;69.10;;;;;;5055440;28;20029;-80
2022/07/22 08:36:08;;;;;;;6.97;5.93;;;28.10;70.10;;;;;;5085167;28;20405;-81
2022/07/22 08:38:34;;;;;;;7.22;5.80;;;28.10;67.60;;;;;;5083882;28;20054;-80
2022/07/22 08:41:02;;;;;;;8.65;5.80;;;27.90;65.40;;;;;;5074488;28;20038;-80
2022/07/22 08:43:29;;;;;;;7.55;5.85;;;27.70;66.70;;;;;;5063979;28;20036;-80
2022/07/22 08:45:56;;;;;;;6.88;5.70;;;27.60;66.10;;;;;;5053553;28;20040;-80
2022/07/22 08:48:23;;;;;;;7.47;6.43;;;27.50;67.40;;;;;;5081675;28;20029;-78
2022/07/22 08:51:07;;;;;;;8.05;6.18;;;27.20;68.80;;;;;;5090961;28;20707;-80
2022/07/22 08:53:54;;;;;;;8.70;6.78;;;27.00;66.00;;;;;;5089872;28;20441;-81
2022/07/22 08:56:20;;;;;;;7.68;5.90;;;26.90;68.00;;;;;;5071169;28;20054;-80
2022/07/22 08:58:46;;;;;;;6.75;5.93;;;26.90;67.30;;;;;;5075188;28;20822;-81
2022/07/22 09:01:15;;;;;;;7.68;5.95;;;27.00;68.10;;;;;;5078500;28;20127;-80
2022/07/22 09:03:52;;;;;;;6.53;5.70;;;27.00;67.70;;;;;;5092258;28;20028;-81
2022/07/22 09:06:20;;;;;;;8.15;6.30;;;27.10;66.70;;;;;;5074023;28;20028;-80
2022/07/22 09:08:59;;;;;;;6.63;5.82;;;27.10;69.90;;;;;;5063435;28;20033;-81
2022/07/22 09:11:43;;;;;;;;;;;27.20;67.00;;;;;;5082332;28;20125;-81
2022/07/22 09:14:50;;;;;;;8.65;5.68;;;27.30;67.20;;;;;;5060270;28;19934;-81
2022/07/22 09:17:40;;;;;;;10.45;5.80;;;27.30;64.70;;;;;;5055349;28;20025;-80
2022/07/22 09:20:24;;;;;;;6.28;5.68;;;27.30;67.70;;;;;;5072385;28;20059;-81
2022/07/22 09:23:25;;;;;;;9.18;6.15;;;27.40;72.40;;;;;;5059981;28;20040;-80
2022/07/22 09:25:53;;;;;;;6.07;5.47;;;27.50;69.80;;;;;;5068758;28;20044;-80
2022/07/22 09:28:24;;;;;;;7.03;5.53;;;27.60;68.70;;;;;;5053508;28;20088;-80
2022/07/22 09:31:30;;;;;;;6.35;5.50;;;27.50;69.70;;;;;;5076595;28;20046;-81
2022/07/22 09:34:05;;;;;;;7.53;6.47;;;27.60;68.40;;;;;;5070991;28;20035;-81
2022/07/22 09:36:31;;;;;;;9.38;5.95;;;27.50;67.60;;;;;;5056562;28;20082;-81
2022/07/22 09:38:57;;;;;;;6.72;5.97;;;27.50;68.70;;;;;;5076050;28;20025;-81
2022/07/22 09:41:23;;;;;;;7.13;6.35;;;27.50;68.40;;;;;;5075169;28;20032;-80
2022/07/22 09:43:52;;;;;;;6.97;6.03;;;27.50;68.30;;;;;;5093619;28;20496;-81
2022/07/22 09:46:34;;;;;;;6.65;5.65;;;27.40;69.00;;;;;;5077369;28;20059;-82
2022/07/22 09:49:30;;;;;;;6.95;5.70;;;27.40;68.10;;;;;;5073048;28;20518;-81
2022/07/22 09:52:17;;;;;;;8.40;6.40;;;27.30;66.30;;;;;;5095204;28;20043;-81
2022/07/22 09:55:01;;;;;;;7.00;6.15;;;27.30;68.10;;;;;;5076337;28;20035;-81
2022/07/22 09:57:27;;;;;;;6.28;5.60;;;27.20;67.90;;;;;;5064685;28;20036;-81
2022/07/22 09:59:53;;;;;;;7.03;6.18;;;27.30;68.60;;;;;;5073490;28;20054;-80
2022/07/22 10:02:28;;;;;;;10.70;6.55;;;27.30;69.70;;;;;;5060349;28;20060;-81
2022/07/22 10:04:57;;;;;;;7.72;6.20;;;27.30;65.50;;;;;;5073079;28;20032;-80
2022/07/22 10:12:40;;;;;;;7.28;5.60;;;27.00;67.10;;;;;;4988507;28;20065;-81
2022/07/22 10:15:08;;;;;;;7.38;6.22;;;26.90;67.30;;;;;;5010970;28;20081;-83
2022/07/22 10:17:41;;;;;;;7.25;5.82;;;26.80;65.80;;;;;;4995298;28;20058;-82
2022/07/22 10:20:07;;;;;;;9.45;5.90;;;26.80;66.80;;;;;;4991549;28;20038;-81
2022/07/22 10:22:41;;;;;;;6.97;5.70;;;26.90;67.40;;;;;;5008145;28;20057;-81
2022/07/22 10:25:09;;;;;;;6.33;5.73;;;27.00;67.50;;;;;;4990214;28;20068;-81
2022/07/22 10:27:45;;;;;;;6.32;5.53;;;27.10;69.90;;;;;;5014470;28;20046;-82
2022/07/22 10:30:13;;;;;;;5.38;4.88;;;27.30;67.90;;;;;;5009102;28;20087;-81
2022/07/22 10:32:38;;;;;;;9.48;5.88;;;27.30;65.00;;;;;;4998145;28;20036;-80
2022/07/22 10:35:10;;;;;;;7.95;5.95;;;27.40;65.50;;;;;;5011312;28;20035;-80
2022/07/22 10:37:40;;;;;;;7.78;5.25;;;27.40;64.90;;;;;;5026471;28;20026;-81
2022/07/22 10:40:18;;;;;;;7.68;5.38;;;27.50;65.70;;;;;;5028102;28;20480;-81
2022/07/22 10:42:59;;;;;;;6.80;5.95;;;27.50;64.80;;;;;;5008630;28;20018;-81
2022/07/22 10:45:43;;;;;;;6.38;5.22;;;27.50;63.00;;;;;;5010997;28;20030;-81
2022/07/22 10:48:16;;;;;;;6.75;5.47;;;27.40;65.00;;;;;;5025686;28;20526;-82
2022/07/22 10:50:49;;;;;;;7.25;5.15;;;27.40;67.40;;;;;;5011822;28;20120;-81
2022/07/22 10:53:53;;;;;;;8.50;5.20;;;27.40;59.80;;;;;;5026789;28;20026;-82
2022/07/22 10:56:18;;;;;;;8.15;5.57;;;27.40;64.10;;;;;;5005177;28;20034;-82
2022/07/22 10:58:51;;;;;;;5.35;4.85;;;27.40;64.80;;;;;;5027353;28;20030;-81
2022/07/22 11:01:19;;;;;;;7.10;5.47;;;27.50;65.20;;;;;;5029587;28;20037;-80
2022/07/22 11:03:47;;;;;;;6.13;5.25;;;27.60;68.00;;;;;;5015517;28;20128;-81
2022/07/22 11:06:29;;;;;;;10.38;5.53;;;27.80;61.60;;;;;;4994153;28;20472;-81
2022/07/22 11:08:57;;;;;;;8.20;5.90;;;27.70;58.40;;;;;;5013399;28;20048;-83
2022/07/22 11:11:47;;;;;;;11.40;6.30;;;27.60;59.50;;;;;;5012132;28;20072;-80
2022/07/22 11:14:30;;;;;;;7.30;6.13;;;27.70;61.60;;;;;;5007155;28;20432;-81
2022/07/22 11:17:05;;;;;;;6.05;5.32;;;27.70;64.30;;;;;;4995019;28;20037;-82
2022/07/22 11:19:37;;;;;;;6.28;5.55;;;27.90;62.50;;;;;;5011638;28;20025;-81
2022/07/22 11:22:08;;;;;;;7.03;5.30;;;28.00;62.10;;;;;;4994092;28;20065;-81
2022/07/22 11:24:35;;;;;;;9.27;5.75;;;28.10;62.00;;;;;;5012275;28;20107;-82
2022/07/22 11:27:02;;;;;;;7.75;5.35;;;28.20;61.80;;;;;;5009512;28;20041;-81
2022/07/22 11:29:42;;;;;;;7.32;5.95;;;28.40;59.00;;;;;;5011956;28;20686;-80
2022/07/22 11:32:10;;;;;;;5.65;5.10;;;28.50;57.90;;;;;;5013593;28;20054;-80
2022/07/22 11:34:37;;;;;;;7.95;5.50;;;28.50;56.90;;;;;;5008932;28;20038;-81
2022/07/22 11:37:03;;;;;;;8.23;5.57;;;28.50;58.60;;;;;;5006348;28;20090;-83
2022/07/22 11:39:30;;;;;;;6.80;5.70;;;28.60;57.60;;;;;;5005340;28;20050;-81
2022/07/22 11:42:01;;;;;;;8.65;5.38;;;28.70;57.70;;;;;;4992202;28;20026;-81
2022/07/22 11:44:30;;;;;;;6.13;5.45;;;28.70;56.20;;;;;;5005437;28;20069;-83
2022/07/22 11:46:58;;;;;;;5.95;5.15;;;28.60;59.00;;;;;;5031384;28;20089;-81
2022/07/22 11:49:25;;;;;;;8.68;5.60;;;28.70;57.80;;;;;;5010964;28;20034;-81
2022/07/22 11:51:51;;;;;;;7.97;5.60;;;28.80;55.40;;;;;;5015339;28;20038;-81
2022/07/22 11:54:18;;;;;;;6.55;5.45;;;28.80;58.40;;;;;;5025094;28;20034;-82
2022/07/22 11:56:44;;;;;;;6.50;5.63;;;28.80;57.00;;;;;;5015355;28;20022;-81
2022/07/22 11:59:14;;;;;;;6.78;5.45;;;28.90;58.80;;;;;;5016206;28;20045;-82
2022/07/22 12:01:40;;;;;;;8.15;5.93;;;29.10;60.00;;;;;;5011533;28;20398;-82
2022/07/22 12:04:07;;;;;;;8.80;5.68;;;29.20;58.50;;;;;;4985934;28;20088;-80
2022/07/22 12:06:39;;;;;;;7.25;5.57;;;29.20;55.70;;;;;;5007839;28;20387;-81
2022/07/22 12:09:33;;;;;;;6.97;5.53;;;29.40;55.10;;;;;;4985214;28;20117;-80
2022/07/22 12:12:00;;;;;;;7.27;4.93;;;29.50;56.30;;;;;;5009290;28;20030;-81
2022/07/22 12:14:28;;;;;;;7.32;5.63;;;29.70;56.50;;;;;;5006393;28;20026;-83
2022/07/22 12:17:00;;;;;;;11.10;8.45;;;29.70;53.00;;;;;;5009952;28;20042;-80
2022/07/22 12:19:31;;;;;;;7.95;5.80;;;29.60;53.80;;;;;;5020223;28;20033;-81
2022/07/22 12:22:04;;;;;;;7.40;5.72;;;29.60;52.10;;;;;;5017555;28;20076;-80
2022/07/22 12:24:35;;;;;;;5.90;5.30;;;29.80;52.90;;;;;;5009474;28;20030;-77
2022/07/22 12:27:06;;;;;;;5.63;5.13;;;29.90;52.70;;;;;;5019929;28;20038;-81
2022/07/22 12:29:38;;;;;;;5.80;5.25;;;30.00;51.90;;;;;;5007771;28;20045;-79
2022/07/22 12:32:15;;;;;;;7.68;5.85;;;29.90;50.50;;;;;;5011126;28;20022;-80
2022/07/22 12:34:46;;;;;;;6.20;5.55;;;29.70;50.40;;;;;;5004604;28;20544;-81
2022/07/22 12:37:29;;;;;;;5.97;4.88;;;29.70;53.60;;;;;;5003676;28;20027;-81
2022/07/22 12:39:56;;;;;;;5.70;5.15;;;29.80;51.30;;;;;;5006086;28;20034;-80
2022/07/22 12:42:24;;;;;;;6.38;4.97;;;30.00;54.00;;;;;;4988151;28;20399;-81
2022/07/22 12:45:09;;;;;;;6.68;5.57;;;30.10;53.20;;;;;;5012405;28;20053;-80
2022/07/22 12:47:45;;;;;;;;;;;30.30;53.00;;;;;;5009249;28;20038;-79
2022/07/22 12:50:20;;;;;;;6.43;5.47;;;30.40;51.30;;;;;;5015385;28;19914;-81
2022/07/22 12:52:47;;;;;;;6.13;5.00;;;30.50;49.50;;;;;;5000135;28;20026;-80
2022/07/22 12:55:12;;;;;;;6.75;4.93;;;30.50;50.10;;;;;;4986674;28;20033;-79
2022/07/22 12:57:38;;;;;;;6.22;5.28;;;30.70;53.00;;;;;;4997048;28;20030;-80
2022/07/22 13:00:05;;;;;;;7.65;5.28;;;30.90;51.70;;;;;;5016355;28;20038;-79
2022/07/22 13:02:30;;;;;;;6.50;4.97;;;31.20;50.70;;;;;;5002667;28;20691;-79